sensor_id;sensor_type;location;lat;lon;timestamp;temperature;humidity
23305;DHT22;11821;51.456;8.844;2022-08-04T00:00:15;22.80;99.90
23305;DHT22;11821;51.456;8.844;2022-08-04T00:10:49;22.60;99.90
23305;DHT22;11821;51.456;8.844;2022-08-04T00:13:21;22.50;99.90
23305;DHT22;11821;51.456;8.844;2022-08-04T00:15:57;22.60;99.90
23305;DHT22;11821;51.456;8.844;2022-08-04T00:18:41;22.50;99.90
23305;DHT22;11821;51.456;8.844;2022-08-04T00:21:12;22.50;99.90
23305;DHT22;11821;51.456;8.844;2022-08-04T00:23:38;22.50;99.90
23305;DHT22;11821;51.456;8.844;2022-08-04T00:26:08;22.50;99.90
23305;DHT22;11821;51.456;8.844;2022-08-04T00:28:35;22.50;99.90
23305;DHT22;11821;51.456;8.844;2022-08-04T00:31:04;22.40;99.90
23305;DHT22;11821;51.456;8.844;2022-08-04T00:33:31;22.40;99.90
23305;DHT22;11821;51.456;8.844;2022-08-04T00:35:59;22.40;99.90
23305;DHT22;11821;51.456;8.844;2022-08-04T00:38:26;22.30;99.90
23305;DHT22;11821;51.456;8.844;2022-08-04T00:41:21;22.30;99.90
23305;DHT22;11821;51.456;8.844;2022-08-04T00:47:19;22.20;99.90
23305;DHT22;11821;51.456;8.844;2022-08-04T01:01:00;22.00;99.90
23305;DHT22;11821;51.456;8.844;2022-08-04T01:18:08;21.90;99.90
23305;DHT22;11821;51.456;8.844;2022-08-04T01:20:46;21.80;99.90
23305;DHT22;11821;51.456;8.844;2022-08-04T01:29:02;21.70;99.90
23305;DHT22;11821;51.456;8.844;2022-08-04T01:33:58;21.60;99.90
23305;DHT22;11821;51.456;8.844;2022-08-04T01:36:25;21.60;99.90
23305;DHT22;11821;51.456;8.844;2022-08-04T01:38:53;21.60;99.90
23305;DHT22;11821;51.456;8.844;2022-08-04T01:41:20;21.60;99.90
23305;DHT22;11821;51.456;8.844;2022-08-04T01:43:47;21.50;99.90
23305;DHT22;11821;51.456;8.844;2022-08-04T01:46:15;21.50;99.90
23305;DHT22;11821;51.456;8.844;2022-08-04T01:48:45;21.40;99.90
23305;DHT22;11821;51.456;8.844;2022-08-04T01:51:12;21.40;99.90
23305;DHT22;11821;51.456;8.844;2022-08-04T01:53:40;21.40;99.90
23305;DHT22;11821;51.456;8.844;2022-08-04T01:56:08;21.40;99.90
23305;DHT22;11821;51.456;8.844;2022-08-04T01:58:37;21.40;99.90
23305;DHT22;11821;51.456;8.844;2022-08-04T02:01:08;21.30;99.90
23305;DHT22;11821;51.456;8.844;2022-08-04T02:03:36;21.30;99.90
23305;DHT22;11821;51.456;8.844;2022-08-04T02:06:17;21.40;99.90
23305;DHT22;11821;51.456;8.844;2022-08-04T02:09:16;21.30;99.90
23305;DHT22;11821;51.456;8.844;2022-08-04T02:11:57;21.30;99.90
23305;DHT22;11821;51.456;8.844;2022-08-04T02:14:29;21.20;99.90
23305;DHT22;11821;51.456;8.844;2022-08-04T02:20:05;21.20;99.90
23305;DHT22;11821;51.456;8.844;2022-08-04T02:22:34;21.10;99.90
23305;DHT22;11821;51.456;8.844;2022-08-04T02:25:07;21.10;99.90
23305;DHT22;11821;51.456;8.844;2022-08-04T02:34:07;21.00;99.90
23305;DHT22;11821;51.456;8.844;2022-08-04T02:36:38;20.90;99.90
23305;DHT22;11821;51.456;8.844;2022-08-04T02:39:08;20.90;99.90
23305;DHT22;11821;51.456;8.844;2022-08-04T02:41:35;20.90;99.90
23305;DHT22;11821;51.456;8.844;2022-08-04T02:44:05;20.90;99.90
23305;DHT22;11821;51.456;8.844;2022-08-04T02:46:33;20.80;99.90
23305;DHT22;11821;51.456;8.844;2022-08-04T02:49:05;20.80;99.90
23305;DHT22;11821;51.456;8.844;2022-08-04T02:51:34;20.80;99.90
23305;DHT22;11821;51.456;8.844;2022-08-04T02:54:03;20.80;99.90
23305;DHT22;11821;51.456;8.844;2022-08-04T02:56:32;20.70;99.90
23305;DHT22;11821;51.456;8.844;2022-08-04T02:59:05;20.70;99.90
23305;DHT22;11821;51.456;8.844;2022-08-04T03:01:32;20.70;99.90
23305;DHT22;11821;51.456;8.844;2022-08-04T03:35:35;20.50;99.90
23305;DHT22;11821;51.456;8.844;2022-08-04T03:55:53;20.20;99.90
23305;DHT22;11821;51.456;8.844;2022-08-04T04:20:37;20.20;99.90
23305;DHT22;11821;51.456;8.844;2022-08-04T04:29:19;20.10;99.90
23305;DHT22;11821;51.456;8.844;2022-08-04T04:32:02;20.10;99.90
23305;DHT22;11821;51.456;8.844;2022-08-04T04:37:25;20.10;99.90
23305;DHT22;11821;51.456;8.844;2022-08-04T04:51:57;20.10;99.90
23305;DHT22;11821;51.456;8.844;2022-08-04T04:54:40;20.20;99.90
23305;DHT22;11821;51.456;8.844;2022-08-04T04:57:22;20.30;99.90
23305;DHT22;11821;51.456;8.844;2022-08-04T04:59:57;20.30;99.90
23305;DHT22;11821;51.456;8.844;2022-08-04T05:11:02;20.50;99.90
23305;DHT22;11821;51.456;8.844;2022-08-04T05:16:31;20.50;99.90
23305;DHT22;11821;51.456;8.844;2022-08-04T05:19:23;20.60;99.90
23305;DHT22;11821;51.456;8.844;2022-08-04T05:22:07;20.70;99.90
23305;DHT22;11821;51.456;8.844;2022-08-04T05:24:38;20.70;99.90
23305;DHT22;11821;51.456;8.844;2022-08-04T05:27:13;20.70;99.90
23305;DHT22;11821;51.456;8.844;2022-08-04T05:29:55;20.80;99.90
23305;DHT22;11821;51.456;8.844;2022-08-04T05:32:27;20.80;99.90
23305;DHT22;11821;51.456;8.844;2022-08-04T05:34:59;20.90;99.90
23305;DHT22;11821;51.456;8.844;2022-08-04T05:37:29;20.90;99.90
23305;DHT22;11821;51.456;8.844;2022-08-04T05:40:03;20.90;99.90
23305;DHT22;11821;51.456;8.844;2022-08-04T05:42:32;20.90;99.90
23305;DHT22;11821;51.456;8.844;2022-08-04T05:45:01;21.00;99.90
23305;DHT22;11821;51.456;8.844;2022-08-04T05:47:29;21.10;99.90
23305;DHT22;11821;51.456;8.844;2022-08-04T05:49:56;21.10;99.90
23305;DHT22;11821;51.456;8.844;2022-08-04T05:52:23;21.10;99.90
23305;DHT22;11821;51.456;8.844;2022-08-04T05:54:50;21.20;99.90
23305;DHT22;11821;51.456;8.844;2022-08-04T05:57:18;21.30;99.90
23305;DHT22;11821;51.456;8.844;2022-08-04T05:59:45;21.40;99.90
23305;DHT22;11821;51.456;8.844;2022-08-04T06:02:13;21.50;99.90
23305;DHT22;11821;51.456;8.844;2022-08-04T06:04:45;21.50;99.90
23305;DHT22;11821;51.456;8.844;2022-08-04T06:07:14;21.60;99.90
23305;DHT22;11821;51.456;8.844;2022-08-04T06:09:40;21.80;99.90
23305;DHT22;11821;51.456;8.844;2022-08-04T06:12:52;21.80;99.90
23305;DHT22;11821;51.456;8.844;2022-08-04T06:14:59;22.00;99.90
23305;DHT22;11821;51.456;8.844;2022-08-04T06:17:37;22.10;99.90
23305;DHT22;11821;51.456;8.844;2022-08-04T06:20:05;22.30;99.90
23305;DHT22;11821;51.456;8.844;2022-08-04T06:22:33;22.40;99.90
23305;DHT22;11821;51.456;8.844;2022-08-04T06:25:01;22.50;99.90
23305;DHT22;11821;51.456;8.844;2022-08-04T06:27:30;22.50;99.90
23305;DHT22;11821;51.456;8.844;2022-08-04T06:29:58;22.60;99.90
23305;DHT22;11821;51.456;8.844;2022-08-04T06:32:27;22.80;99.90
23305;DHT22;11821;51.456;8.844;2022-08-04T06:35:05;22.90;99.90
23305;DHT22;11821;51.456;8.844;2022-08-04T06:37:33;23.10;99.90
23305;DHT22;11821;51.456;8.844;2022-08-04T06:40:02;23.30;99.90
23305;DHT22;11821;51.456;8.844;2022-08-04T06:42:30;23.50;99.90
23305;DHT22;11821;51.456;8.844;2022-08-04T06:44:58;23.70;99.90
23305;DHT22;11821;51.456;8.844;2022-08-04T06:47:25;23.90;99.90
23305;DHT22;11821;51.456;8.844;2022-08-04T06:49:54;24.10;99.90
23305;DHT22;11821;51.456;8.844;2022-08-04T06:52:20;24.20;99.90
23305;DHT22;11821;51.456;8.844;2022-08-04T06:54:49;24.30;99.90
23305;DHT22;11821;51.456;8.844;2022-08-04T06:57:25;24.50;99.90
23305;DHT22;11821;51.456;8.844;2022-08-04T07:00:03;24.70;99.90
23305;DHT22;11821;51.456;8.844;2022-08-04T07:02:33;24.90;99.90
23305;DHT22;11821;51.456;8.844;2022-08-04T07:05:05;25.00;99.90
23305;DHT22;11821;51.456;8.844;2022-08-04T07:07:32;25.10;99.90
23305;DHT22;11821;51.456;8.844;2022-08-04T07:10:01;25.30;99.90
23305;DHT22;11821;51.456;8.844;2022-08-04T07:12:27;25.50;99.90
23305;DHT22;11821;51.456;8.844;2022-08-04T07:14:55;25.80;99.90
23305;DHT22;11821;51.456;8.844;2022-08-04T07:17:22;26.00;99.90
23305;DHT22;11821;51.456;8.844;2022-08-04T07:19:49;26.20;99.90
23305;DHT22;11821;51.456;8.844;2022-08-04T07:22:15;26.60;99.90
23305;DHT22;11821;51.456;8.844;2022-08-04T07:24:42;26.80;99.90
23305;DHT22;11821;51.456;8.844;2022-08-04T07:27:08;27.10;99.90
23305;DHT22;11821;51.456;8.844;2022-08-04T07:29:35;27.30;99.90
23305;DHT22;11821;51.456;8.844;2022-08-04T07:32:03;27.40;99.90
23305;DHT22;11821;51.456;8.844;2022-08-04T07:34:31;27.70;99.90
23305;DHT22;11821;51.456;8.844;2022-08-04T07:36:59;27.90;99.90
23305;DHT22;11821;51.456;8.844;2022-08-04T07:39:27;28.10;99.90
23305;DHT22;11821;51.456;8.844;2022-08-04T07:41:57;28.20;99.90
23305;DHT22;11821;51.456;8.844;2022-08-04T07:44:24;28.40;99.90
23305;DHT22;11821;51.456;8.844;2022-08-04T07:46:51;28.50;99.90
23305;DHT22;11821;51.456;8.844;2022-08-04T07:49:17;28.70;99.90
23305;DHT22;11821;51.456;8.844;2022-08-04T07:51:45;28.90;99.90
23305;DHT22;11821;51.456;8.844;2022-08-04T07:54:12;29.00;99.90
23305;DHT22;11821;51.456;8.844;2022-08-04T07:56:40;29.10;99.90
23305;DHT22;11821;51.456;8.844;2022-08-04T07:59:07;29.30;99.90
23305;DHT22;11821;51.456;8.844;2022-08-04T08:01:35;29.40;99.90
23305;DHT22;11821;51.456;8.844;2022-08-04T08:04:04;29.30;99.90
23305;DHT22;11821;51.456;8.844;2022-08-04T08:06:35;29.70;99.90
23305;DHT22;11821;51.456;8.844;2022-08-04T08:09:18;29.90;99.90
23305;DHT22;11821;51.456;8.844;2022-08-04T08:11:49;30.00;99.90
23305;DHT22;11821;51.456;8.844;2022-08-04T08:14:16;30.10;99.90
23305;DHT22;11821;51.456;8.844;2022-08-04T08:16:42;30.40;99.90
23305;DHT22;11821;51.456;8.844;2022-08-04T08:19:09;30.40;99.90
23305;DHT22;11821;51.456;8.844;2022-08-04T08:21:36;30.40;99.90
23305;DHT22;11821;51.456;8.844;2022-08-04T08:24:04;30.80;99.90
23305;DHT22;11821;51.456;8.844;2022-08-04T08:26:30;31.10;99.90
23305;DHT22;11821;51.456;8.844;2022-08-04T08:28:57;31.40;99.90
23305;DHT22;11821;51.456;8.844;2022-08-04T08:31:23;31.70;99.90
23305;DHT22;11821;51.456;8.844;2022-08-04T08:33:51;31.80;99.90
23305;DHT22;11821;51.456;8.844;2022-08-04T08:36:20;32.00;99.90
23305;DHT22;11821;51.456;8.844;2022-08-04T08:39:01;32.00;99.90
23305;DHT22;11821;51.456;8.844;2022-08-04T08:41:54;32.30;99.90
23305;DHT22;11821;51.456;8.844;2022-08-04T09:11:35;34.60;99.90
23305;DHT22;11821;51.456;8.844;2022-08-04T09:13:49;34.70;96.80
23305;DHT22;11821;51.456;8.844;2022-08-04T09:16:21;34.80;97.40
23305;DHT22;11821;51.456;8.844;2022-08-04T09:19:03;34.70;96.80
23305;DHT22;11821;51.456;8.844;2022-08-04T09:21:40;34.60;96.00
23305;DHT22;11821;51.456;8.844;2022-08-04T09:24:19;34.90;96.50
23305;DHT22;11821;51.456;8.844;2022-08-04T09:26:59;34.90;96.40
23305;DHT22;11821;51.456;8.844;2022-08-04T09:29:46;35.20;96.90
23305;DHT22;11821;51.456;8.844;2022-08-04T09:46:22;36.40;91.40
23305;DHT22;11821;51.456;8.844;2022-08-04T09:49:01;36.60;85.70
23305;DHT22;11821;51.456;8.844;2022-08-04T10:00:16;36.90;89.90
23305;DHT22;11821;51.456;8.844;2022-08-04T10:02:55;37.20;85.40
23305;DHT22;11821;51.456;8.844;2022-08-04T10:11:20;37.80;82.50
23305;DHT22;11821;51.456;8.844;2022-08-04T10:14:09;38.00;79.50
23305;DHT22;11821;51.456;8.844;2022-08-04T10:19:35;38.30;75.20
23305;DHT22;11821;51.456;8.844;2022-08-04T10:24:47;38.50;74.30
23305;DHT22;11821;51.456;8.844;2022-08-04T10:27:23;38.70;74.80
23305;DHT22;11821;51.456;8.844;2022-08-04T10:29:55;38.80;73.80
23305;DHT22;11821;51.456;8.844;2022-08-04T10:32:27;38.80;71.10
23305;DHT22;11821;51.456;8.844;2022-08-04T10:35:08;38.80;73.60
23305;DHT22;11821;51.456;8.844;2022-08-04T10:43:45;39.00;70.10
23305;DHT22;11821;51.456;8.844;2022-08-04T10:49:13;38.40;70.10
23305;DHT22;11821;51.456;8.844;2022-08-04T10:51:48;38.50;71.20
23305;DHT22;11821;51.456;8.844;2022-08-04T10:57:33;39.20;73.10
23305;DHT22;11821;51.456;8.844;2022-08-04T11:00:04;39.50;67.60
23305;DHT22;11821;51.456;8.844;2022-08-04T11:05:16;39.90;70.00
23305;DHT22;11821;51.456;8.844;2022-08-04T11:07:46;39.90;70.10
23305;DHT22;11821;51.456;8.844;2022-08-04T11:10:15;39.70;69.80
23305;DHT22;11821;51.456;8.844;2022-08-04T11:12:44;39.80;71.00
23305;DHT22;11821;51.456;8.844;2022-08-04T11:15:20;40.10;72.20
23305;DHT22;11821;51.456;8.844;2022-08-04T11:17:58;40.20;67.00
23305;DHT22;11821;51.456;8.844;2022-08-04T11:25:40;39.80;67.90
23305;DHT22;11821;51.456;8.844;2022-08-04T11:31:16;40.10;68.10
23305;DHT22;11821;51.456;8.844;2022-08-04T11:33:51;40.30;68.50
23305;DHT22;11821;51.456;8.844;2022-08-04T11:38:52;40.40;70.30
23305;DHT22;11821;51.456;8.844;2022-08-04T11:41:32;40.60;71.30
23305;DHT22;11821;51.456;8.844;2022-08-04T11:44:03;40.70;66.70
23305;DHT22;11821;51.456;8.844;2022-08-04T11:46:46;40.70;68.60
23305;DHT22;11821;51.456;8.844;2022-08-04T11:51:47;40.60;67.90
23305;DHT22;11821;51.456;8.844;2022-08-04T11:54:16;40.40;65.30
23305;DHT22;11821;51.456;8.844;2022-08-04T11:56:44;40.30;67.40
23305;DHT22;11821;51.456;8.844;2022-08-04T11:59:10;40.60;66.20
23305;DHT22;11821;51.456;8.844;2022-08-04T12:04:23;40.40;68.30
23305;DHT22;11821;51.456;8.844;2022-08-04T12:06:55;40.20;65.50
23305;DHT22;11821;51.456;8.844;2022-08-04T12:10:15;40.10;69.80
23305;DHT22;11821;51.456;8.844;2022-08-04T12:12:36;40.00;67.90
23305;DHT22;11821;51.456;8.844;2022-08-04T12:17:51;39.60;70.50
23305;DHT22;11821;51.456;8.844;2022-08-04T12:20:22;39.80;72.00
23305;DHT22;11821;51.456;8.844;2022-08-04T12:22:50;39.70;71.90
23305;DHT22;11821;51.456;8.844;2022-08-04T12:25:25;39.50;72.30
23305;DHT22;11821;51.456;8.844;2022-08-04T12:27:58;39.40;71.70
23305;DHT22;11821;51.456;8.844;2022-08-04T12:30:25;39.50;75.20
23305;DHT22;11821;51.456;8.844;2022-08-04T12:33:05;39.70;67.60
23305;DHT22;11821;51.456;8.844;2022-08-04T12:35:57;39.80;67.30
23305;DHT22;11821;51.456;8.844;2022-08-04T12:38:29;39.40;66.90
23305;DHT22;11821;51.456;8.844;2022-08-04T12:40:59;39.30;65.50
23305;DHT22;11821;51.456;8.844;2022-08-04T12:43:38;39.70;69.80
23305;DHT22;11821;51.456;8.844;2022-08-04T12:46:17;40.00;66.50
23305;DHT22;11821;51.456;8.844;2022-08-04T12:48:45;40.00;66.00
23305;DHT22;11821;51.456;8.844;2022-08-04T12:51:12;40.00;64.40
23305;DHT22;11821;51.456;8.844;2022-08-04T12:53:41;40.00;63.60
23305;DHT22;11821;51.456;8.844;2022-08-04T12:56:10;40.00;64.00
23305;DHT22;11821;51.456;8.844;2022-08-04T12:58:40;40.40;64.30
23305;DHT22;11821;51.456;8.844;2022-08-04T13:01:12;40.50;62.80
23305;DHT22;11821;51.456;8.844;2022-08-04T13:03:44;40.80;62.30
23305;DHT22;11821;51.456;8.844;2022-08-04T13:06:14;41.00;63.00
23305;DHT22;11821;51.456;8.844;2022-08-04T13:08:44;41.20;61.80
23305;DHT22;11821;51.456;8.844;2022-08-04T13:11:11;41.20;62.80
23305;DHT22;11821;51.456;8.844;2022-08-04T13:13:38;41.30;61.90
23305;DHT22;11821;51.456;8.844;2022-08-04T13:16:07;41.20;61.90
23305;DHT22;11821;51.456;8.844;2022-08-04T13:18:36;41.00;63.00
23305;DHT22;11821;51.456;8.844;2022-08-04T13:21:18;41.00;61.90
23305;DHT22;11821;51.456;8.844;2022-08-04T13:23:51;41.00;61.60
23305;DHT22;11821;51.456;8.844;2022-08-04T13:26:19;41.10;61.30
23305;DHT22;11821;51.456;8.844;2022-08-04T13:28:48;41.30;61.90
23305;DHT22;11821;51.456;8.844;2022-08-04T13:31:18;41.30;61.90
23305;DHT22;11821;51.456;8.844;2022-08-04T13:33:51;41.00;61.90
23305;DHT22;11821;51.456;8.844;2022-08-04T13:36:22;41.20;61.90
23305;DHT22;11821;51.456;8.844;2022-08-04T13:38:52;41.30;63.80
23305;DHT22;11821;51.456;8.844;2022-08-04T13:41:20;41.10;60.80
23305;DHT22;11821;51.456;8.844;2022-08-04T13:43:49;40.80;63.70
23305;DHT22;11821;51.456;8.844;2022-08-04T13:46:27;40.60;63.80
23305;DHT22;11821;51.456;8.844;2022-08-04T13:48:56;40.20;64.80
23305;DHT22;11821;51.456;8.844;2022-08-04T13:51:24;40.10;68.00
23305;DHT22;11821;51.456;8.844;2022-08-04T13:53:58;40.20;62.50
23305;DHT22;11821;51.456;8.844;2022-08-04T13:56:32;40.20;64.00
23305;DHT22;11821;51.456;8.844;2022-08-04T13:59:02;40.20;64.40
23305;DHT22;11821;51.456;8.844;2022-08-04T14:01:29;40.10;60.50
23305;DHT22;11821;51.456;8.844;2022-08-04T14:06:31;39.80;67.40
23305;DHT22;11821;51.456;8.844;2022-08-04T14:11:46;39.90;64.90
23305;DHT22;11821;51.456;8.844;2022-08-04T14:14:30;39.70;63.50
23305;DHT22;11821;51.456;8.844;2022-08-04T14:19:53;39.60;62.80
23305;DHT22;11821;51.456;8.844;2022-08-04T14:25:11;39.40;66.70
23305;DHT22;11821;51.456;8.844;2022-08-04T14:28:02;39.40;64.20
23305;DHT22;11821;51.456;8.844;2022-08-04T14:30:34;39.50;62.80
23305;DHT22;11821;51.456;8.844;2022-08-04T14:33:05;39.40;61.00
23305;DHT22;11821;51.456;8.844;2022-08-04T14:35:32;39.30;66.20
23305;DHT22;11821;51.456;8.844;2022-08-04T14:38:04;39.30;64.40
23305;DHT22;11821;51.456;8.844;2022-08-04T14:40:31;39.20;63.90
23305;DHT22;11821;51.456;8.844;2022-08-04T14:42:57;39.00;66.80
23305;DHT22;11821;51.456;8.844;2022-08-04T14:45:36;38.90;63.70
23305;DHT22;11821;51.456;8.844;2022-08-04T14:50:44;38.10;63.90
23305;DHT22;11821;51.456;8.844;2022-08-04T14:53:19;38.10;64.70
23305;DHT22;11821;51.456;8.844;2022-08-04T14:55:50;37.70;67.30
23305;DHT22;11821;51.456;8.844;2022-08-04T14:58:28;37.70;70.80
23305;DHT22;11821;51.456;8.844;2022-08-04T15:00:57;37.50;65.70
23305;DHT22;11821;51.456;8.844;2022-08-04T15:03:24;37.50;68.60
23305;DHT22;11821;51.456;8.844;2022-08-04T15:05:54;37.30;67.60
23305;DHT22;11821;51.456;8.844;2022-08-04T15:08:21;37.00;74.50
23305;DHT22;11821;51.456;8.844;2022-08-04T15:10:47;37.00;71.10
23305;DHT22;11821;51.456;8.844;2022-08-04T15:13:14;36.80;69.60
23305;DHT22;11821;51.456;8.844;2022-08-04T15:15:41;36.80;68.90
23305;DHT22;11821;51.456;8.844;2022-08-04T15:18:10;36.80;72.00
23305;DHT22;11821;51.456;8.844;2022-08-04T15:20:37;36.90;70.80
23305;DHT22;11821;51.456;8.844;2022-08-04T15:23:05;37.00;71.20
23305;DHT22;11821;51.456;8.844;2022-08-04T15:25:40;36.90;71.60
23305;DHT22;11821;51.456;8.844;2022-08-04T15:28:11;37.00;71.70
23305;DHT22;11821;51.456;8.844;2022-08-04T15:30:39;37.10;78.00
23305;DHT22;11821;51.456;8.844;2022-08-04T15:33:06;37.20;73.00
23305;DHT22;11821;51.456;8.844;2022-08-04T15:35:33;37.30;73.00
23305;DHT22;11821;51.456;8.844;2022-08-04T15:38:07;37.40;71.70
23305;DHT22;11821;51.456;8.844;2022-08-04T15:40:51;37.60;78.40
23305;DHT22;11821;51.456;8.844;2022-08-04T15:46:10;37.10;75.20
23305;DHT22;11821;51.456;8.844;2022-08-04T15:48:38;37.10;77.20
23305;DHT22;11821;51.456;8.844;2022-08-04T15:51:07;36.80;74.20
23305;DHT22;11821;51.456;8.844;2022-08-04T15:59:02;36.90;76.40
23305;DHT22;11821;51.456;8.844;2022-08-04T16:01:28;36.70;73.90
23305;DHT22;11821;51.456;8.844;2022-08-04T16:03:54;36.80;76.10
23305;DHT22;11821;51.456;8.844;2022-08-04T16:14:10;35.90;75.40
23305;DHT22;11821;51.456;8.844;2022-08-04T16:21:56;35.80;80.90
23305;DHT22;11821;51.456;8.844;2022-08-04T16:27:05;35.60;80.50
23305;DHT22;11821;51.456;8.844;2022-08-04T16:29:43;35.50;81.90
23305;DHT22;11821;51.456;8.844;2022-08-04T16:32:15;35.30;82.20
23305;DHT22;11821;51.456;8.844;2022-08-04T16:35:16;34.90;82.50
23305;DHT22;11821;51.456;8.844;2022-08-04T16:37:37;34.90;83.80
23305;DHT22;11821;51.456;8.844;2022-08-04T16:40:27;35.00;83.70
23305;DHT22;11821;51.456;8.844;2022-08-04T16:43:11;35.00;84.30
23305;DHT22;11821;51.456;8.844;2022-08-04T16:45:57;35.00;84.20
23305;DHT22;11821;51.456;8.844;2022-08-04T16:50:54;34.90;84.70
23305;DHT22;11821;51.456;8.844;2022-08-04T16:53:24;35.00;85.60
23305;DHT22;11821;51.456;8.844;2022-08-04T16:55:52;34.90;87.10
23305;DHT22;11821;51.456;8.844;2022-08-04T16:58:30;34.60;86.30
23305;DHT22;11821;51.456;8.844;2022-08-04T17:00:58;34.50;86.40
23305;DHT22;11821;51.456;8.844;2022-08-04T17:03:30;34.40;87.80
23305;DHT22;11821;51.456;8.844;2022-08-04T17:06:12;34.50;88.20
23305;DHT22;11821;51.456;8.844;2022-08-04T17:08:48;34.10;88.30
23305;DHT22;11821;51.456;8.844;2022-08-04T17:11:15;34.20;88.80
23305;DHT22;11821;51.456;8.844;2022-08-04T17:13:44;34.20;87.90
23305;DHT22;11821;51.456;8.844;2022-08-04T17:16:13;34.00;89.10
23305;DHT22;11821;51.456;8.844;2022-08-04T17:18:47;34.00;89.10
23305;DHT22;11821;51.456;8.844;2022-08-04T17:21:23;33.80;89.50
23305;DHT22;11821;51.456;8.844;2022-08-04T17:23:51;33.70;89.40
23305;DHT22;11821;51.456;8.844;2022-08-04T17:26:23;33.60;90.10
23305;DHT22;11821;51.456;8.844;2022-08-04T17:28:52;33.50;89.20
23305;DHT22;11821;51.456;8.844;2022-08-04T17:31:21;33.60;90.00
23305;DHT22;11821;51.456;8.844;2022-08-04T17:33:51;33.50;90.00
23305;DHT22;11821;51.456;8.844;2022-08-04T17:36:25;33.30;90.10
23305;DHT22;11821;51.456;8.844;2022-08-04T17:38:56;33.20;90.30
23305;DHT22;11821;51.456;8.844;2022-08-04T17:41:26;33.20;90.00
23305;DHT22;11821;51.456;8.844;2022-08-04T17:43:55;33.00;90.20
23305;DHT22;11821;51.456;8.844;2022-08-04T17:46:41;33.00;89.80
23305;DHT22;11821;51.456;8.844;2022-08-04T17:49:19;33.00;90.30
23305;DHT22;11821;51.456;8.844;2022-08-04T17:51:56;33.00;90.70
23305;DHT22;11821;51.456;8.844;2022-08-04T17:56:54;32.90;91.10
23305;DHT22;11821;51.456;8.844;2022-08-04T18:02:07;32.90;90.90
23305;DHT22;11821;51.456;8.844;2022-08-04T18:07:05;32.60;92.20
23305;DHT22;11821;51.456;8.844;2022-08-04T18:09:53;32.50;91.70
23305;DHT22;11821;51.456;8.844;2022-08-04T18:14:50;32.40;92.10
23305;DHT22;11821;51.456;8.844;2022-08-04T18:17:55;32.20;92.00
23305;DHT22;11821;51.456;8.844;2022-08-04T18:20:24;32.10;92.40
23305;DHT22;11821;51.456;8.844;2022-08-04T18:22:51;32.20;92.40
23305;DHT22;11821;51.456;8.844;2022-08-04T18:25:19;32.10;92.70
23305;DHT22;11821;51.456;8.844;2022-08-04T18:27:51;32.10;92.20
23305;DHT22;11821;51.456;8.844;2022-08-04T18:30:23;32.00;91.80
23305;DHT22;11821;51.456;8.844;2022-08-04T18:32:50;31.90;92.20
23305;DHT22;11821;51.456;8.844;2022-08-04T18:35:19;31.90;92.30
23305;DHT22;11821;51.456;8.844;2022-08-04T18:37:45;31.70;92.70
23305;DHT22;11821;51.456;8.844;2022-08-04T18:40:11;31.50;92.60
23305;DHT22;11821;51.456;8.844;2022-08-04T18:42:38;31.60;92.80
23305;DHT22;11821;51.456;8.844;2022-08-04T18:45:05;31.60;92.90
23305;DHT22;11821;51.456;8.844;2022-08-04T18:47:32;31.50;92.90
23305;DHT22;11821;51.456;8.844;2022-08-04T18:49:58;31.30;93.20
23305;DHT22;11821;51.456;8.844;2022-08-04T18:52:24;31.00;93.20
23305;DHT22;11821;51.456;8.844;2022-08-04T18:54:51;31.10;93.30
23305;DHT22;11821;51.456;8.844;2022-08-04T18:57:22;31.10;93.40
23305;DHT22;11821;51.456;8.844;2022-08-04T18:59:49;31.10;93.80
23305;DHT22;11821;51.456;8.844;2022-08-04T19:02:16;31.10;94.80
23305;DHT22;11821;51.456;8.844;2022-08-04T19:04:43;31.00;93.90
23305;DHT22;11821;51.456;8.844;2022-08-04T19:07:10;30.80;94.50
23305;DHT22;11821;51.456;8.844;2022-08-04T19:09:40;30.80;95.90
23305;DHT22;11821;51.456;8.844;2022-08-04T19:12:07;30.70;95.30
23305;DHT22;11821;51.456;8.844;2022-08-04T19:14:33;30.60;96.80
23305;DHT22;11821;51.456;8.844;2022-08-04T19:17:00;30.50;95.40
23305;DHT22;11821;51.456;8.844;2022-08-04T19:19:26;30.40;97.30
23305;DHT22;11821;51.456;8.844;2022-08-04T19:21:53;30.30;97.10
23305;DHT22;11821;51.456;8.844;2022-08-04T19:24:19;30.20;97.10
23305;DHT22;11821;51.456;8.844;2022-08-04T19:26:46;30.10;96.20
23305;DHT22;11821;51.456;8.844;2022-08-04T19:29:12;30.10;97.30
23305;DHT22;11821;51.456;8.844;2022-08-04T19:31:40;30.10;97.10
23305;DHT22;11821;51.456;8.844;2022-08-04T19:34:07;30.00;97.10
23305;DHT22;11821;51.456;8.844;2022-08-04T19:36:33;29.90;96.90
23305;DHT22;11821;51.456;8.844;2022-08-04T19:39:03;29.90;97.20
23305;DHT22;11821;51.456;8.844;2022-08-04T19:41:30;29.90;97.30
23305;DHT22;11821;51.456;8.844;2022-08-04T19:44:05;29.90;97.30
23305;DHT22;11821;51.456;8.844;2022-08-04T19:46:31;29.80;98.50
23305;DHT22;11821;51.456;8.844;2022-08-04T19:48:58;29.80;99.50
23305;DHT22;11821;51.456;8.844;2022-08-04T19:51:25;29.60;99.90
23305;DHT22;11821;51.456;8.844;2022-08-04T19:53:51;29.40;99.90
23305;DHT22;11821;51.456;8.844;2022-08-04T19:56:18;29.20;99.90
23305;DHT22;11821;51.456;8.844;2022-08-04T19:58:44;28.90;99.90
23305;DHT22;11821;51.456;8.844;2022-08-04T20:01:11;29.00;99.90
23305;DHT22;11821;51.456;8.844;2022-08-04T20:03:38;28.90;99.90
23305;DHT22;11821;51.456;8.844;2022-08-04T20:06:05;28.80;99.90
23305;DHT22;11821;51.456;8.844;2022-08-04T20:08:31;28.80;99.90
23305;DHT22;11821;51.456;8.844;2022-08-04T20:10:57;28.70;99.90
23305;DHT22;11821;51.456;8.844;2022-08-04T20:13:25;28.70;99.90
23305;DHT22;11821;51.456;8.844;2022-08-04T20:15:52;28.50;99.90
23305;DHT22;11821;51.456;8.844;2022-08-04T20:18:19;28.40;99.90
23305;DHT22;11821;51.456;8.844;2022-08-04T20:20:45;28.30;99.90
23305;DHT22;11821;51.456;8.844;2022-08-04T20:23:11;28.40;99.90
23305;DHT22;11821;51.456;8.844;2022-08-04T20:25:38;28.30;99.90
23305;DHT22;11821;51.456;8.844;2022-08-04T20:28:04;28.30;99.90
23305;DHT22;11821;51.456;8.844;2022-08-04T20:30:31;28.30;99.90
23305;DHT22;11821;51.456;8.844;2022-08-04T20:32:58;28.20;99.90
23305;DHT22;11821;51.456;8.844;2022-08-04T20:35:29;28.00;99.90
23305;DHT22;11821;51.456;8.844;2022-08-04T20:37:55;28.00;99.90
23305;DHT22;11821;51.456;8.844;2022-08-04T20:40:21;28.00;99.90
23305;DHT22;11821;51.456;8.844;2022-08-04T20:42:48;27.90;99.90
23305;DHT22;11821;51.456;8.844;2022-08-04T20:45:16;27.90;99.90
23305;DHT22;11821;51.456;8.844;2022-08-04T20:47:43;27.80;99.90
23305;DHT22;11821;51.456;8.844;2022-08-04T20:50:11;27.60;99.90
23305;DHT22;11821;51.456;8.844;2022-08-04T20:52:37;27.60;99.90
23305;DHT22;11821;51.456;8.844;2022-08-04T20:55:05;27.70;99.90
23305;DHT22;11821;51.456;8.844;2022-08-04T20:57:32;27.60;99.90